Georgetown, MS (39078)

8:14 PM CST on December 05, 2016 (GMT -0600)
Crystal Springs Farm Mkt | | Change Station

Elev 453 ft 31.95 °N, 90.34 °W | Updated 14 minutes ago

Light Rain
Light Rain Mist
57.3 °F
Feels Like 57.3 °F
N
0.0
Wind Variable Wind from ESE

Today
High -- | Low -- °F
--% Chance of Precip.
Yesterday
High -- | Low -- °F
Precip. -- in
Pressure 29.69 in
Visibility 5.0 miles
Clouds Overcast 200 ft
Dew Point 56 °F
Humidity 94%
Rainfall 0.64 in
Snow Depth Not available.
6:46 AM 4:56 PM
Waxing Crescent, 37% visible
METAR KJAN 060154Z 08003KT 5SM -RA BR OVC002 14/13 A2969 RMK AO2 LTG DSNT E RAE16B38 SLP053 CB AND LTG DSNT W P0000 T01440133
Pressure 29.69 in
Visibility 5.0 miles
Clouds Overcast 200 ft
Dew Point 56 °F
Humidity 94%
Rainfall 0.64 in
Snow Depth Not available.
6:46 AM 4:56 PM
Waxing Crescent, 37% visible
METAR KJAN 060154Z 08003KT 5SM -RA BR OVC002 14/13 A2969 RMK AO2 LTG DSNT E RAE16B38 SLP053 CB AND LTG DSNT W P0000 T01440133

10-Day Weather Forecast

Almanac

Astronomy

Dec. 05, 2016 Rise Set
Actual Time
Civil Twilight
Nautical Twilight
Astronomical Twilight
Moon
Length of Visible Light
Length of Day
Tomorrow will be .
, % of the Moon is Illuminated

Today's Extremes

State Highs State Lows

Community

WunderPhotos

Upload Photos

1,955,901 photos uploaded!

WunderBlog® & News

Nearby

Air Quality

  Air Quality AQ Index Pollutant
Not available.

Snow Depth

Station Depth Elevation

Earthquake Activity

City Distance Mag. Time & Date
Minimum magnitude displayed is 2.5.

Coastal Water Temperatures

Place Temperature

Stations

Nearby Weather Stations

Station Location Temp. Windchill Dew Point Humidity Wind Precip. Elev Updated Type
                   

Watches & Warnings

There are currently no watches in effect.